• Join FlightAware (Why Join?)
  • Login
  • US Flag 
11:54AM EDT


 

Airport Tracker/Info


-or-


 

Live Flight TrackerFlight Track Log ✈ VH-PIE ✈ 07-May-2013 ✈ YSBK / BWU - YSBK / BWU

Flight Track Log - Related Links

Times and Time Zones

All times are in EDT time to prevent confusion due to time zone crossing. See the VH-PIE flight status page for this flight to view local times or setup timezone preferences in your user account.

Time Position Orientation Groundspeed Altitude Reporting Facility
EDT Latitude Longitude Course Direction KTS MPH feet Rate Location/Type
11:44PM -33.9283 150.9998 65° Northeast 88 101 400  Level Aus ATC (RADAR)
11:45PM -33.9232 151.0132 65° Northeast 97 112 1,000 960 Climbing Aus ATC (RADAR)
11:46PM -33.9089 150.9931 311° West 109 125 1,700 1,020 Climbing Aus ATC (RADAR)
11:46PM -33.9035 150.9760 291° West 104 120 2,300 1,080 Climbing Aus ATC (RADAR)
11:47PM -33.8974 150.9555 290° West 107 123 2,900 480 Climbing Aus ATC (RADAR)
11:48PM -33.8793 150.9200 302° West 131 151 3,100 120 Climbing Aus ATC (RADAR)
11:48PM -33.8679 150.9067 316° Northwest 134 154 3,100 -120 Level Aus ATC (RADAR)
11:49PM -33.8526 150.8864 312° West 139 160 3,000 -120 Descending Aus ATC (RADAR)
11:50PM -33.8233 150.8730 339° North 136 157 3,000  Level Aus ATC (RADAR)
11:50PM -33.8016 150.8724 359° North 134 154 3,000  Level Aus ATC (RADAR)
11:51PM -33.7738 150.8695 355° North 135 155 3,000  Level Aus ATC (RADAR)
11:51PM -33.7583 150.8679 355° North 135 155 3,000  Level Aus ATC (RADAR)
11:52PM -33.7427 150.8848 42° Northeast 127 146 3,000  Level Aus ATC (RADAR)
11:53PM -33.7202 150.9218 54° Northeast 125 144 3,000  Level Aus ATC (RADAR)
11:53PM -33.7111 150.9358 52° Northeast 125 144 3,000  Level Aus ATC (RADAR)
11:54PM -33.6985 150.9557 53° Northeast 126 145 3,000 -240 Level Aus ATC (RADAR)
11:55PM -33.6774 150.9854 49° Northeast 127 146 2,700 -300 Descending Aus ATC (RADAR)
11:55PM -33.6568 150.9838 356° North 130 150 2,600 -240 Descending Aus ATC (RADAR)
11:56PM -33.6474 150.9505 289° West 125 144 2,400 -240 Descending Aus ATC (RADAR)
11:57PM -33.6415 150.9276 287° West 121 139 2,300 -420 Descending Aus ATC (RADAR)
11:58PM -33.6292 150.8787 287° West 118 136 1,700 -660 Descending Aus ATC (RADAR)
11:58PM -33.6261 150.8662 287° West 117 135 1,300 -900 Descending Aus ATC (RADAR)
11:59PM -33.6212 150.8464 286° West 105 121 900 -480 Descending Aus ATC (RADAR)
12:00AM -33.6150 150.8228 287° West 97 112 700 -420 Descending Aus ATC (RADAR)
12:00AM -33.6104 150.8044 287° West 97 112 400 120 Descending Aus ATC (RADAR)
12:01AM -33.6030 150.7790 289° West 106 122 900 840 Climbing Aus ATC (RADAR)
12:02AM -33.5998 150.7644 285° West 103 119 1,400 960 Climbing Aus ATC (RADAR)
12:02AM -33.6085 150.7467 239° Southwest 106 122 1,900 960 Climbing Aus ATC (RADAR)
12:03AM -33.6355 150.7279 210° Southwest 102 117 3,000 900 Climbing Aus ATC (RADAR)
12:04AM -33.6454 150.7185 218° Southwest 104 120 3,300 660 Climbing Aus ATC (RADAR)
12:04AM -33.6595 150.7040 221° Southwest 111 128 3,700 720 Climbing Aus ATC (RADAR)
12:05AM -33.6856 150.7042 180° South 114 131 4,400 600 Climbing Aus ATC (RADAR)
12:06AM -33.7057 150.7078 171° South 128 147 4,600 120 Climbing Aus ATC (RADAR)
12:06AM -33.7381 150.7034 186° South 142 163 4,600 -120 Level Aus ATC (RADAR)
12:07AM -33.7561 150.7012 186° South 154 177 4,500  Descending Aus ATC (RADAR)
12:08AM -33.8148 150.6891 190° South 161 185 4,600  Climbing Aus ATC (RADAR)
12:09AM -33.8327 150.6938 168° South 163 188 4,600  Level Aus ATC (RADAR)
12:09AM -33.8486 150.7040 152° Southeast 156 180 4,600  Level Aus ATC (RADAR)
12:10AM -33.8742 150.7003 187° South 157 181 4,600  Level Aus ATC (RADAR)
12:10AM -33.9108 150.6978 183° South 159 183 4,600  Level Aus ATC (RADAR)
12:11AM -33.9366 150.6966 182° South 160 184 4,600  Level Aus ATC (RADAR)
12:12AM -33.9733 150.6950 182° South 159 183 4,600  Level Aus ATC (RADAR)
12:12AM -33.9919 150.6933 184° South 160 184 4,600  Level Aus ATC (RADAR)
12:13AM -34.0254 150.6917 182° South 162 186 4,600  Level Aus ATC (RADAR)
12:14AM -34.0515 150.6931 177° South 163 188 4,600  Level Aus ATC (RADAR)
12:14AM -34.0772 150.6977 172° South 161 185 4,600  Level Aus ATC (RADAR)
12:15AM -34.1101 150.7045 170° South 161 185 4,600  Level Aus ATC (RADAR)
12:15AM -34.1281 150.7078 171° South 158 182 4,600 -120 Level Aus ATC (RADAR)
12:16AM -34.1572 150.7156 167° South 163 188 4,500 -180 Descending Aus ATC (RADAR)
12:17AM -34.1907 150.7222 171° South 162 186 4,400  Descending Aus ATC (RADAR)
12:17AM -34.2160 150.7265 172° South 158 182 4,500  Climbing Aus ATC (RADAR)
12:19AM -34.2744 150.7383 171° South 158 182 4,500  Level Aus ATC (RADAR)
12:19AM -34.2965 150.7427 171° South 161 185 4,500  Level Aus ATC (RADAR)
12:20AM -34.3224 150.7485 170° South 162 186 4,500  Level Aus ATC (RADAR)
12:21AM -34.3591 150.7548 172° South 161 185 4,500  Level Aus ATC (RADAR)
12:21AM -34.3776 150.7565 176° South 162 186 4,500  Level Aus ATC (RADAR)
12:22AM -34.4035 150.7617 171° South 162 186 4,500  Level Aus ATC (RADAR)
12:22AM -34.4294 150.7680 169° South 163 188 4,500  Level Aus ATC (RADAR)
12:23AM -34.4729 150.7798 167° South 161 185 4,500  Level Aus ATC (RADAR)
12:24AM -34.4915 150.7843 169° South 163 188 4,500  Level Aus ATC (RADAR)
12:24AM -34.5099 150.7868 174° South 162 186 4,500  Level Aus ATC (RADAR)
12:25AM -34.5347 150.7893 175° South 153 176 4,500  Level Aus ATC (RADAR)
12:25AM -34.5661 150.7934 174° South 152 175 4,500  Level Aus ATC (RADAR)
12:26AM -34.5891 150.7845 198° South 149 171 4,500  Level Aus ATC (RADAR)
12:27AM -34.5981 150.7503 252° West 135 155 4,500 -120 Level Aus ATC (RADAR)
12:27AM -34.5974 150.7295 272° West 142 163 4,400 -120 Descending Aus ATC (RADAR)
12:28AM -34.5771 150.7179 335° Northwest 144 166 4,400  Level Aus ATC (RADAR)
12:29AM -34.5596 150.7757 70° East 139 160 4,400  Level Aus ATC (RADAR)
12:29AM -34.5589 150.7940 87° East 131 151 4,500  Climbing Aus ATC (RADAR)
12:30AM -34.5418 150.8059 30° Northeast 141 162 4,400 -120 Descending Aus ATC (RADAR)
12:31AM -34.5340 150.7738 286° West 135 155 4,400  Level Aus ATC (RADAR)
12:31AM -34.5368 150.7467 263° West 135 155 4,400 -120 Level Aus ATC (RADAR)
12:32AM -34.5518 150.7193 236° Southwest 141 162 4,300  Descending Aus ATC (RADAR)
12:33AM -34.5649 150.7307 144° Southeast 145 167 4,400  Climbing Aus ATC (RADAR)
12:34AM -34.5568 150.7858 80° East 133 153 4,300 -60 Descending Aus ATC (RADAR)
12:34AM -34.5536 150.8031 77° East 126 145 4,300 -540 Level Aus ATC (RADAR)
12:35AM -34.5494 150.8294 79° East 130 150 3,800 -1,020 Descending Aus ATC (RADAR)
12:36AM -34.5471 150.8632 85° East 114 131 2,900 -840 Descending Aus ATC (RADAR)
12:36AM -34.5435 150.8840 78° East 104 120 2,700 -540 Descending Aus ATC (RADAR)
12:37AM -34.5323 150.9032 55° Northeast 110 127 2,200 -600 Descending Aus ATC (RADAR)
12:37AM -34.5276 150.8882 291° West 123 142 2,000 -240 Descending Aus ATC (RADAR)
12:39AM -34.5420 150.8475 247° West 94 108 1,800 -180 Descending Aus ATC (RADAR)
12:39AM -34.5457 150.8382 244° Southwest 93 107 1,800 420 Level Aus ATC (RADAR)
12:42AM -34.5751 150.8199 207° Southwest 114 131 3,500 540 Climbing Aus ATC (RADAR)
12:43AM -34.5741 150.8340 85° East 103 119 3,900 600 Climbing Aus ATC (RADAR)
12:44AM -34.5454 150.8603 37° Northeast 117 135 4,600 360 Climbing Aus ATC (RADAR)
12:44AM -34.5305 150.8573 351° North 128 147 4,600  Level Aus ATC (RADAR)
12:45AM -34.5053 150.8550 356° North 134 154 4,600  Level Aus ATC (RADAR)
12:46AM -34.4766 150.8578 North 138 159 4,600  Level Aus ATC (RADAR)
12:46AM -34.4541 150.8569 358° North 139 160 4,600  Level Aus ATC (RADAR)
12:47AM -34.4234 150.8582 North 147 169 4,600  Level Aus ATC (RADAR)
12:48AM -34.4060 150.8587 North 149 171 4,600  Level Aus ATC (RADAR)
12:48AM -34.3696 150.8485 347° North 150 173 4,600  Level Aus ATC (RADAR)
12:49AM -34.3498 150.8389 338° Northwest 153 176 4,600  Level Aus ATC (RADAR)
12:49AM -34.3333 150.8313 339° North 152 175 4,600  Level Aus ATC (RADAR)
12:50AM -34.3106 150.8205 339° North 149 171 4,600 -120 Level Aus ATC (RADAR)
12:51AM -34.2781 150.8045 338° Northwest 150 173 4,500  Descending Aus ATC (RADAR)
12:51AM -34.2562 150.7932 337° Northwest 146 168 4,600  Climbing Aus ATC (RADAR)
12:52AM -34.2263 150.7822 343° North 149 171 4,500 -120 Descending Aus ATC (RADAR)
12:53AM -34.2094 150.7759 343° North 151 174 4,500  Level Aus ATC (RADAR)
12:54AM -34.1638 150.7529 337° Northwest 152 175 4,500 -180 Level Aus ATC (RADAR)
12:54AM -34.1479 150.7435 334° Northwest 151 174 4,300 -600 Descending Aus ATC (RADAR)
12:55AM -34.1299 150.7358 341° North 162 186 4,000 -600 Descending Aus ATC (RADAR)
12:55AM -34.1061 150.7255 340° North 157 181 3,700 -540 Descending Aus ATC (RADAR)
12:56AM -34.0726 150.7086 337° Northwest 154 177 3,300 -300 Descending Aus ATC (RADAR)
12:57AM -34.0508 150.6971 336° Northwest 147 169 3,300 -300 Level Aus ATC (RADAR)
12:57AM -34.0253 150.7179 34° Northeast 151 174 2,900 -480 Descending Aus ATC (RADAR)
12:58AM -34.0202 150.7395 74° East 155 178 2,700 -300 Descending Aus ATC (RADAR)
12:59AM -33.9998 150.7894 64° Northeast 135 155 2,500 -180 Descending Aus ATC (RADAR)
12:59AM -33.9929 150.8061 64° Northeast 131 151 2,500 -300 Level Aus ATC (RADAR)
01:00AM -33.9820 150.8301 61° Northeast 137 158 2,200 -480 Descending Aus ATC (RADAR)
01:01AM -33.9607 150.8563 46° Northeast 146 168 1,900 -480 Descending Aus ATC (RADAR)
01:01AM -33.9435 150.8760 44° Northeast 143 165 1,600 -600 Descending Aus ATC (RADAR)
01:02AM -33.9251 150.9083 55° Northeast 135 155 1,100 -600 Descending Aus ATC (RADAR)
01:03AM -33.9190 150.9238 65° Northeast 122 140 900  Descending Aus ATC (RADAR)
01:03AM -33.9115 150.9417 63° Northeast 106 122 1,100 -300 Climbing Aus ATC (RADAR)
01:04AM -33.9113 150.9703 90° East 88 101 500 -660 Descending Aus ATC (RADAR)
01:05AM -33.9168 150.9801 124° Southeast 84 97 200 -720 Descending Aus ATC (RADAR)